aviador You're here:

PAHN Decoded Metar

HAINES in AK, USA
Report Time2017-11-21 01:54:00
UTC Time2017-11-21 02:33:56
Flight Rules vfr VFR
Wind340° at 09 kt
W.Decomp.*RWY 26: 4.5 kt HW 7.8 kt RCW
W.Rank340° ranks 21
Current wind is above 340° avg. (5.9)
Visibility9999 m
Phenomena:N/A
Clouds:Overcast 055 Hf
Expected CloudBase > 2,000 ft AGL from Temp-Dew spread
Ceiling5,500 ft
Temp-7°C (ISA -22)
Dew Point-12°C (68% RH)
AAT-13.4°C
QNH1018 hPa
Density Alt-2,851 ft
Elevation16 ft
Report Wrong Elevation
Raw Report
PAHN 210154Z AUTO 34009KT 10SM OVC055 M07/M12 A3005 RMK AO2 SLP178
T10671122 TSNO=

Extra information for PAHN:More info

Metar Taf Metar & Taf Last 4 Metars F.Rules Stats Wind Profile Meteogram Temp Stats Airport Information Weather charts Add Link Nearby VenuesMetar ALERT Operation Metar Decoded Social comments

AIRNAV info for PAHN